Time;durP1;ratioP1;P1;durP2;ratioP2;P2;SDS_P1;SDS_P2;PMS_P1;PMS_P2;Temp;Humidity;BMP_temperature;BMP_pressure;BME280_temperature;BME280_humidity;BME280_pressure;Samples;Min_cycle;Max_cycle;Signal;HPM_P1;HPM_P2
2021/05/14 00:00:05;;;;;;;8.88;7.20;;;12.50;84.80;;;;;;4989231;28;20033;-76
2021/05/14 00:02:31;;;;;;;9.73;8.00;;;12.50;83.20;;;;;;4967923;28;20034;-76
2021/05/14 00:04:56;;;;;;;9.07;7.75;;;12.70;82.80;;;;;;4985135;28;20023;-77
2021/05/14 00:07:22;;;;;;;12.77;10.70;;;12.60;82.70;;;;;;4979851;28;20078;-77
2021/05/14 00:09:47;;;;;;;14.15;8.23;;;12.60;82.40;;;;;;4981758;28;20037;-76
2021/05/14 00:12:13;;;;;;;13.75;8.32;;;12.60;83.20;;;;;;4987995;28;20493;-77
2021/05/14 00:14:38;;;;;;;10.00;8.23;;;12.60;85.00;;;;;;4985683;28;20473;-77
2021/05/14 00:17:04;;;;;;;10.57;9.07;;;12.50;84.50;;;;;;4996148;28;20128;-77
2021/05/14 00:19:29;;;;;;;18.30;14.45;;;12.50;86.80;;;;;;4979205;28;20033;-77
2021/05/14 00:21:55;;;;;;;10.95;9.25;;;12.50;86.30;;;;;;4978500;28;20430;-77
2021/05/14 00:24:20;;;;;;;20.77;15.15;;;12.40;87.00;;;;;;4981488;28;20061;-77
2021/05/14 00:26:46;;;;;;;22.98;15.73;;;12.40;85.40;;;;;;4995865;28;20033;-77
2021/05/14 00:29:12;;;;;;;21.95;17.40;;;12.20;84.60;;;;;;4968731;28;20049;-77
2021/05/14 00:31:38;;;;;;;12.27;11.00;;;12.10;84.50;;;;;;4995527;28;20425;-76
2021/05/14 00:34:03;;;;;;;10.68;9.00;;;12.10;85.40;;;;;;4996282;28;20548;-77
2021/05/14 00:36:29;;;;;;;9.60;8.02;;;12.20;85.00;;;;;;4978312;28;20070;-76
2021/05/14 00:38:54;;;;;;;10.20;8.38;;;12.30;84.80;;;;;;4961044;28;20058;-77
2021/05/14 00:41:20;;;;;;;18.13;13.43;;;12.20;83.80;;;;;;4983424;28;20060;-76
2021/05/14 00:43:45;;;;;;;14.20;11.80;;;12.00;83.60;;;;;;4979912;28;20030;-77
2021/05/14 00:46:11;;;;;;;10.45;9.35;;;12.10;84.40;;;;;;4979513;28;20033;-76
2021/05/14 00:48:38;;;;;;;18.75;12.98;;;12.10;84.40;;;;;;4994566;28;20227;-76
2021/05/14 00:51:04;;;;;;;14.27;11.93;;;12.20;87.50;;;;;;4979533;28;20114;-77
2021/05/14 00:53:30;;;;;;;11.18;8.45;;;12.30;88.20;;;;;;4994973;28;20552;-76
2021/05/14 00:55:55;;;;;;;14.07;12.57;;;12.40;87.30;;;;;;4999017;28;20030;-76
2021/05/14 00:58:21;;;;;;;13.15;9.82;;;12.30;88.30;;;;;;4964051;28;20030;-77
2021/05/14 01:00:46;;;;;;;14.13;9.98;;;12.30;89.20;;;;;;5001312;28;20032;-76
2021/05/14 01:03:15;;;;;;;12.65;10.43;;;12.30;89.40;;;;;;4968794;28;20029;-76
2021/05/14 01:05:41;;;;;;;9.63;8.63;;;12.50;88.50;;;;;;4998529;28;20034;-76
2021/05/14 01:08:07;;;;;;;14.02;12.23;;;12.50;88.70;;;;;;4978589;28;20037;-76
2021/05/14 01:10:33;;;;;;;13.98;12.48;;;12.50;88.90;;;;;;4996326;28;20030;-76
2021/05/14 01:12:58;;;;;;;13.95;9.93;;;12.50;90.20;;;;;;4964830;28;20054;-76
2021/05/14 01:15:24;;;;;;;9.13;7.68;;;12.40;90.30;;;;;;4993348;28;20426;-77
2021/05/14 01:17:49;;;;;;;12.68;9.23;;;12.40;90.10;;;;;;4967605;28;20023;-77
2021/05/14 01:20:15;;;;;;;13.65;11.32;;;12.50;90.30;;;;;;4996298;28;20022;-76
2021/05/14 01:22:41;;;;;;;8.63;7.30;;;12.40;90.30;;;;;;4974755;28;20026;-76
2021/05/14 01:25:07;;;;;;;10.52;8.63;;;12.50;90.10;;;;;;4969498;28;20019;-76
2021/05/14 01:27:33;;;;;;;13.75;10.57;;;12.60;90.00;;;;;;4993350;28;20056;-77
2021/05/14 01:29:58;;;;;;;12.77;10.55;;;12.50;90.60;;;;;;4984949;28;20053;-77
2021/05/14 01:32:24;;;;;;;14.88;9.88;;;12.30;90.10;;;;;;4980244;28;20037;-77
2021/05/14 01:34:49;;;;;;;12.25;9.35;;;12.40;90.00;;;;;;4997854;28;20286;-76
2021/05/14 01:37:15;;;;;;;14.10;11.95;;;12.30;89.50;;;;;;4970221;28;20026;-76
2021/05/14 01:39:41;;;;;;;11.38;8.98;;;12.30;89.00;;;;;;4992332;28;20042;-76
2021/05/14 01:42:06;;;;;;;19.15;13.43;;;12.20;89.80;;;;;;4986554;28;20470;-76
2021/05/14 01:44:32;;;;;;;9.75;7.30;;;12.10;88.30;;;;;;4983300;28;20125;-77
2021/05/14 01:46:57;;;;;;;15.23;12.52;;;12.00;88.90;;;;;;4977566;28;20053;-77
2021/05/14 01:49:23;;;;;;;7.85;6.97;;;12.10;87.80;;;;;;4993312;28;20069;-77
2021/05/14 01:51:48;;;;;;;14.65;9.90;;;12.00;88.70;;;;;;4972052;28;20038;-77
2021/05/14 01:54:14;;;;;;;13.32;10.48;;;12.00;89.20;;;;;;4963412;28;20059;-76
2021/05/14 01:56:49;;;;;;;11.60;9.73;;;12.00;88.50;;;;;;4992401;28;20043;-76
2021/05/14 01:59:15;;;;;;;15.05;12.82;;;12.10;89.00;;;;;;4996132;28;20503;-76
2021/05/14 02:01:41;;;;;;;17.73;15.00;;;12.00;88.90;;;;;;4993883;28;20054;-76
2021/05/14 02:04:06;;;;;;;16.10;9.52;;;12.00;89.70;;;;;;4993119;28;20062;-77
2021/05/14 02:06:32;;;;;;;20.50;12.55;;;11.80;88.80;;;;;;4988930;28;20046;-76
2021/05/14 02:08:57;;;;;;;8.43;6.43;;;11.90;88.50;;;;;;4992757;28;20029;-77
2021/05/14 02:11:23;;;;;;;19.27;13.15;;;11.80;89.10;;;;;;4980470;28;20034;-76
2021/05/14 02:13:48;;;;;;;9.55;8.55;;;11.90;88.10;;;;;;4994662;28;20045;-77
2021/05/14 02:16:14;;;;;;;14.32;12.80;;;11.90;88.40;;;;;;4978850;28;20421;-76
2021/05/14 02:18:39;;;;;;;14.85;12.48;;;11.70;87.70;;;;;;4993552;28;20037;-75
2021/05/14 02:21:05;;;;;;;10.80;9.30;;;11.60;88.70;;;;;;4976857;28;20391;-76
2021/05/14 02:23:31;;;;;;;12.63;9.02;;;11.70;90.20;;;;;;4983850;28;20108;-76
2021/05/14 02:25:57;;;;;;;10.55;7.43;;;11.80;90.60;;;;;;4978272;28;20509;-77
2021/05/14 02:28:22;;;;;;;12.85;9.90;;;11.70;89.30;;;;;;4994971;28;20056;-76
2021/05/14 02:30:48;;;;;;;9.57;7.45;;;11.80;90.00;;;;;;4976485;28;20155;-76
2021/05/14 02:33:13;;;;;;;14.50;12.63;;;11.80;90.00;;;;;;4995422;28;20041;-77
2021/05/14 02:35:39;;;;;;;17.63;15.10;;;11.70;88.70;;;;;;4979398;28;20065;-77
2021/05/14 02:38:04;;;;;;;9.43;8.30;;;11.50;89.00;;;;;;4995071;28;20030;-77
2021/05/14 02:40:30;;;;;;;11.20;9.63;;;11.40;90.00;;;;;;4995773;28;20034;-78
2021/05/14 02:42:55;;;;;;;9.82;8.25;;;11.40;89.20;;;;;;4984624;28;20030;-78
2021/05/14 02:45:21;;;;;;;13.20;11.70;;;11.20;89.30;;;;;;4990933;28;20037;-78
2021/05/14 02:47:47;;;;;;;17.52;13.93;;;11.30;89.00;;;;;;4974970;28;20023;-78
2021/05/14 02:50:12;;;;;;;16.40;12.48;;;11.30;89.90;;;;;;4983662;28;20041;-78
2021/05/14 02:52:38;;;;;;;8.07;6.85;;;11.40;89.10;;;;;;4978382;28;20448;-78
2021/05/14 02:55:04;;;;;;;13.50;10.65;;;11.40;89.00;;;;;;4977271;28;20401;-78
2021/05/14 02:57:30;;;;;;;16.45;12.55;;;11.50;90.00;;;;;;4990624;28;20069;-78
2021/05/14 02:59:55;;;;;;;8.60;7.68;;;11.50;89.80;;;;;;4972887;28;20126;-78
2021/05/14 03:02:21;;;;;;;13.27;11.52;;;11.50;90.10;;;;;;4980144;28;20073;-78
2021/05/14 03:04:46;;;;;;;12.25;10.65;;;11.50;89.30;;;;;;4975917;28;20490;-78
2021/05/14 03:07:13;;;;;;;10.68;8.90;;;11.30;89.30;;;;;;4975597;28;20528;-78
2021/05/14 03:09:38;;;;;;;12.25;9.02;;;11.30;90.20;;;;;;4993724;28;20043;-78
2021/05/14 03:12:04;;;;;;;12.98;11.23;;;11.30;90.50;;;;;;4958637;28;20042;-78
2021/05/14 03:14:30;;;;;;;7.68;6.53;;;11.40;89.70;;;;;;4998936;28;20034;-78
2021/05/14 03:16:55;;;;;;;16.83;12.25;;;11.30;90.00;;;;;;5000901;28;20049;-78
2021/05/14 03:19:21;;;;;;;16.00;12.80;;;11.30;89.40;;;;;;4966377;28;20525;-78
2021/05/14 03:21:46;;;;;;;16.60;14.18;;;11.20;89.60;;;;;;4999006;28;20061;-78
2021/05/14 03:24:12;;;;;;;19.40;14.85;;;11.00;89.00;;;;;;4989314;28;20489;-77
2021/05/14 03:26:37;;;;;;;16.88;13.05;;;11.00;89.50;;;;;;4970068;28;20468;-78
2021/05/14 03:29:03;;;;;;;18.95;14.60;;;10.90;90.10;;;;;;4985351;28;20057;-78
2021/05/14 03:31:29;;;;;;;11.60;8.88;;;10.80;89.50;;;;;;4984479;28;20041;-78
2021/05/14 03:33:54;;;;;;;18.15;14.23;;;10.80;90.20;;;;;;4982854;28;20034;-78
2021/05/14 03:36:21;;;;;;;18.33;13.98;;;10.70;89.70;;;;;;4979448;28;20069;-78
2021/05/14 03:38:47;;;;;;;12.38;9.95;;;10.70;90.00;;;;;;4994326;28;20237;-77
2021/05/14 03:41:31;;;;;;;10.77;8.82;;;10.80;90.20;;;;;;5001368;28;20437;-78
2021/05/14 03:43:57;;;;;;;14.70;12.32;;;10.80;90.10;;;;;;4971750;28;20032;-78
2021/05/14 03:46:25;;;;;;;20.67;14.20;;;10.70;90.10;;;;;;4995361;28;20033;-78
2021/05/14 03:48:51;;;;;;;17.92;14.52;;;10.90;90.20;;;;;;4978528;28;20046;-78
2021/05/14 03:51:16;;;;;;;9.70;8.52;;;10.70;89.80;;;;;;4978863;28;20038;-77
2021/05/14 03:53:42;;;;;;;15.57;13.20;;;10.70;90.60;;;;;;4982954;28;20034;-78
2021/05/14 03:56:07;;;;;;;23.85;15.10;;;10.60;90.10;;;;;;4971282;28;20026;-78
2021/05/14 03:58:33;;;;;;;14.43;10.65;;;10.60;90.10;;;;;;4979861;28;20068;-78
2021/05/14 04:00:58;;;;;;;9.32;8.32;;;10.60;90.50;;;;;;4998148;28;20029;-77
2021/05/14 04:03:24;;;;;;;13.63;12.00;;;10.70;90.40;;;;;;4962968;28;20026;-78
2021/05/14 04:05:49;;;;;;;10.43;9.23;;;10.70;90.30;;;;;;4975470;28;20512;-78
2021/05/14 04:08:15;;;;;;;14.48;10.27;;;10.60;90.60;;;;;;4999135;28;20030;-78
2021/05/14 04:16:00;;;;;;;8.93;7.68;;;10.40;90.30;;;;;;4983109;28;20241;-77
2021/05/14 04:18:26;;;;;;;10.65;9.25;;;10.70;91.10;;;;;;4964851;28;20061;-76
2021/05/14 04:20:52;;;;;;;13.70;10.50;;;10.90;90.90;;;;;;4965850;28;20400;-77
2021/05/14 04:23:17;;;;;;;15.02;12.40;;;10.80;90.40;;;;;;4970417;28;20528;-77
2021/05/14 04:25:43;;;;;;;10.20;8.18;;;10.70;90.40;;;;;;4992068;28;20042;-77
2021/05/14 04:28:08;;;;;;;9.77;7.82;;;10.60;90.20;;;;;;4986558;28;20428;-77
2021/05/14 04:30:34;;;;;;;13.23;10.27;;;10.60;90.40;;;;;;4990992;28;20471;-77
2021/05/14 04:32:59;;;;;;;12.43;9.18;;;10.60;90.60;;;;;;4999477;28;20504;-77
2021/05/14 04:35:26;;;;;;;12.43;9.38;;;10.70;91.00;;;;;;4981065;28;20026;-77
2021/05/14 04:37:52;;;;;;;9.77;8.52;;;10.70;90.90;;;;;;4977397;28;20037;-77
2021/05/14 04:40:19;;;;;;;26.23;14.05;;;10.70;90.50;;;;;;4997219;28;20033;-77
2021/05/14 04:42:44;;;;;;;13.00;10.88;;;10.70;90.80;;;;;;4976904;28;20555;-77
2021/05/14 04:45:10;;;;;;;13.15;10.18;;;10.80;91.00;;;;;;4995546;28;20030;-77
2021/05/14 04:47:36;;;;;;;13.38;10.73;;;10.90;90.70;;;;;;4996825;28;20034;-77
2021/05/14 04:50:02;;;;;;;10.90;8.90;;;11.00;90.80;;;;;;4978932;28;20045;-77
2021/05/14 04:52:29;;;;;;;10.30;8.48;;;11.00;90.60;;;;;;4957145;28;20048;-77
2021/05/14 04:54:55;;;;;;;15.05;12.15;;;11.00;90.40;;;;;;4963879;28;20393;-77
2021/05/14 04:57:21;;;;;;;18.90;14.98;;;11.10;90.20;;;;;;4974572;28;20030;-77
2021/05/14 04:59:46;;;;;;;8.68;6.85;;;11.20;90.80;;;;;;5000295;28;20076;-77
2021/05/14 05:02:12;;;;;;;10.00;7.63;;;11.20;90.20;;;;;;4964976;28;20065;-77
2021/05/14 05:04:37;;;;;;;19.65;13.80;;;11.30;90.00;;;;;;4981691;28;20061;-77
2021/05/14 05:07:04;;;;;;;18.90;15.98;;;11.30;90.30;;;;;;4992682;28;20042;-78
2021/05/14 05:09:29;;;;;;;17.35;13.40;;;11.30;90.40;;;;;;4976606;28;20072;-77
2021/05/14 05:11:55;;;;;;;14.93;12.38;;;11.30;90.70;;;;;;4997053;28;20481;-77
2021/05/14 05:14:20;;;;;;;19.23;15.38;;;11.30;90.60;;;;;;4998711;28;20045;-77
2021/05/14 05:16:46;;;;;;;18.90;14.93;;;11.40;90.30;;;;;;4980186;28;20030;-77
2021/05/14 05:19:11;;;;;;;21.30;16.40;;;11.40;90.10;;;;;;4967122;28;20034;-77
2021/05/14 05:21:37;;;;;;;19.75;15.85;;;11.40;90.20;;;;;;4975937;28;20038;-78
2021/05/14 05:24:03;;;;;;;22.88;15.93;;;11.40;90.20;;;;;;4993246;28;20022;-77
2021/05/14 05:26:29;;;;;;;20.90;16.02;;;11.50;90.20;;;;;;4995202;28;20033;-77
2021/05/14 05:28:54;;;;;;;18.45;13.77;;;11.60;90.50;;;;;;5000584;28;20038;-77
2021/05/14 05:31:20;;;;;;;20.30;15.38;;;11.70;90.00;;;;;;4980055;28;20101;-77
2021/05/14 05:33:45;;;;;;;17.38;14.25;;;11.80;90.20;;;;;;4992978;28;20425;-77
2021/05/14 05:36:11;;;;;;;12.15;9.25;;;11.90;90.00;;;;;;4978223;28;20027;-77
2021/05/14 05:38:36;;;;;;;20.65;14.38;;;11.90;90.00;;;;;;4965237;28;20061;-77
2021/05/14 05:41:02;;;;;;;12.30;9.65;;;12.00;90.00;;;;;;4996724;28;20426;-77
2021/05/14 05:43:28;;;;;;;7.68;6.75;;;12.10;90.00;;;;;;4976489;28;20042;-78
2021/05/14 05:45:54;;;;;;;7.97;6.93;;;12.30;89.10;;;;;;4994800;28;20022;-77
2021/05/14 05:48:19;;;;;;;11.05;7.00;;;12.40;88.60;;;;;;4977350;28;20102;-77
2021/05/14 05:50:45;;;;;;;12.68;7.63;;;12.50;88.40;;;;;;4957186;28;20027;-77
2021/05/14 05:53:11;;;;;;;13.20;10.20;;;12.70;88.90;;;;;;4969244;28;20081;-77
2021/05/14 05:55:36;;;;;;;10.00;7.10;;;12.80;89.90;;;;;;4977246;28;20072;-77
2021/05/14 05:58:12;;;;;;;8.48;6.35;;;12.90;89.00;;;;;;4969082;28;20061;-77
2021/05/14 06:00:37;;;;;;;12.70;10.47;;;13.00;88.00;;;;;;4968725;28;20034;-77
2021/05/14 06:03:03;;;;;;;11.10;9.02;;;13.20;89.20;;;;;;4978954;28;20049;-77
2021/05/14 06:05:29;;;;;;;9.23;6.63;;;13.30;89.20;;;;;;4998202;28;20030;-77
2021/05/14 06:07:55;;;;;;;6.70;5.43;;;13.50;88.40;;;;;;4966402;28;20081;-77
2021/05/14 06:10:20;;;;;;;8.43;6.70;;;13.50;87.60;;;;;;4995348;28;20118;-77
2021/05/14 06:12:46;;;;;;;9.88;8.10;;;13.60;87.90;;;;;;4962654;28;20070;-77
2021/05/14 06:15:12;;;;;;;9.93;8.48;;;13.70;88.10;;;;;;4994543;28;20065;-77
2021/05/14 06:17:42;;;;;;;10.52;8.60;;;13.70;88.40;;;;;;4975253;28;20261;-77
2021/05/14 06:20:09;;;;;;;12.80;9.23;;;13.90;90.00;;;;;;4976142;28;20034;-77
2021/05/14 06:22:34;;;;;;;8.60;6.63;;;14.00;88.60;;;;;;4963785;28;20034;-78
2021/05/14 06:25:00;;;;;;;8.23;6.35;;;14.10;87.50;;;;;;4992404;28;20361;-78
2021/05/14 06:27:25;;;;;;;13.05;9.73;;;14.20;88.00;;;;;;4963876;28;20248;-77
2021/05/14 06:29:51;;;;;;;9.07;7.20;;;14.20;89.00;;;;;;4995189;28;20037;-77
2021/05/14 06:32:16;;;;;;;10.50;8.65;;;14.40;87.70;;;;;;4970313;28;20046;-78
2021/05/14 06:34:43;;;;;;;15.43;10.00;;;14.60;90.30;;;;;;4981218;28;20041;-78
2021/05/14 06:37:09;;;;;;;12.70;9.50;;;14.60;90.20;;;;;;4993758;28;20418;-78
2021/05/14 06:39:34;;;;;;;10.70;8.15;;;14.90;91.00;;;;;;4978819;28;20041;-78
2021/05/14 06:42:00;;;;;;;10.98;6.82;;;15.00;88.20;;;;;;4978735;28;20117;-78
2021/05/14 06:44:26;;;;;;;10.75;6.82;;;14.80;87.50;;;;;;4974901;28;20516;-78
2021/05/14 06:46:51;;;;;;;9.43;7.35;;;14.80;87.30;;;;;;4976215;28;20056;-78
2021/05/14 06:49:17;;;;;;;10.40;8.02;;;15.00;88.40;;;;;;4978356;28;20129;-78
2021/05/14 06:51:43;;;;;;;9.88;7.07;;;15.20;90.40;;;;;;4976184;28;20493;-78
2021/05/14 06:54:09;;;;;;;8.65;6.50;;;15.30;86.40;;;;;;4980120;28;20038;-78
2021/05/14 06:56:34;;;;;;;8.48;7.57;;;15.40;87.60;;;;;;4979655;28;20603;-78
2021/05/14 06:59:00;;;;;;;10.98;9.25;;;15.60;88.10;;;;;;4984373;28;20026;-78
2021/05/14 07:01:25;;;;;;;12.55;9.48;;;15.80;91.10;;;;;;4981177;28;20394;-78
2021/05/14 07:03:51;;;;;;;9.15;6.80;;;16.00;91.20;;;;;;4978392;28;20117;-78
2021/05/14 07:06:17;;;;;;;8.48;7.28;;;16.10;90.00;;;;;;4992194;28;20516;-78
2021/05/14 07:08:46;;;;;;;10.35;7.45;;;16.10;89.10;;;;;;4990644;28;20061;-79
2021/05/14 07:11:12;;;;;;;8.98;6.78;;;16.40;91.30;;;;;;4968278;28;20434;-78
2021/05/14 07:13:37;;;;;;;12.98;8.07;;;16.30;85.80;;;;;;4976874;28;20034;-78
2021/05/14 07:16:03;;;;;;;9.77;7.57;;;16.30;90.40;;;;;;4948985;28;20023;-78
2021/05/14 07:18:29;;;;;;;8.05;6.70;;;16.50;89.10;;;;;;4976110;28;20441;-78
2021/05/14 07:20:54;;;;;;;9.95;8.52;;;16.80;88.70;;;;;;4972029;28;20058;-78
2021/05/14 07:23:20;;;;;;;15.10;10.48;;;16.90;90.50;;;;;;4995368;28;20034;-78
2021/05/14 07:25:45;;;;;;;8.88;7.97;;;17.10;90.40;;;;;;4963493;28;20199;-78
2021/05/14 07:28:11;;;;;;;12.50;9.80;;;17.40;90.60;;;;;;4976564;28;20426;-78
2021/05/14 07:30:37;;;;;;;10.77;8.88;;;17.60;91.20;;;;;;4999726;28;20030;-78
2021/05/14 07:33:02;;;;;;;9.90;7.63;;;17.60;90.30;;;;;;4974904;28;20428;-78
2021/05/14 07:35:28;;;;;;;8.35;6.13;;;17.70;86.50;;;;;;4969082;28;20037;-78
2021/05/14 07:37:53;;;;;;;9.18;7.00;;;18.00;87.00;;;;;;4956838;28;20031;-78
2021/05/14 07:40:19;;;;;;;10.77;8.68;;;18.30;89.50;;;;;;4996369;28;20022;-78
2021/05/14 07:42:44;;;;;;;13.63;9.75;;;18.40;89.80;;;;;;4981980;28;20057;-79
2021/05/14 07:45:10;;;;;;;9.43;7.47;;;18.70;91.00;;;;;;4979742;28;20035;-79
2021/05/14 07:47:36;;;;;;;9.00;7.35;;;18.70;90.00;;;;;;4992313;28;20069;-79
2021/05/14 07:50:03;;;;;;;9.18;7.35;;;18.60;86.30;;;;;;4980897;28;20201;-79
2021/05/14 07:52:28;;;;;;;8.40;6.30;;;18.60;89.20;;;;;;4967822;28;20437;-79
2021/05/14 07:54:54;;;;;;;12.10;6.60;;;18.60;84.10;;;;;;4978832;28;20035;-79
2021/05/14 07:57:19;;;;;;;11.75;8.95;;;18.60;85.80;;;;;;4992649;28;20049;-78
2021/05/14 07:59:45;;;;;;;10.85;8.30;;;18.80;87.10;;;;;;4993647;28;20038;-78
2021/05/14 08:02:10;;;;;;;8.27;6.72;;;18.90;87.80;;;;;;4990105;28;20037;-78
2021/05/14 08:04:36;;;;;;;10.75;9.15;;;19.20;88.50;;;;;;5000150;28;20038;-78
2021/05/14 08:07:01;;;;;;;8.90;7.10;;;19.60;90.00;;;;;;4980436;28;20485;-79
2021/05/14 08:09:27;;;;;;;12.38;8.35;;;19.70;87.50;;;;;;4979646;28;20485;-78
2021/05/14 08:11:53;;;;;;;9.18;6.80;;;20.00;88.60;;;;;;4962431;28;20567;-78
2021/05/14 08:14:18;;;;;;;7.75;6.13;;;19.80;81.90;;;;;;4980314;28;20027;-78
2021/05/14 08:16:44;;;;;;;12.70;7.82;;;19.90;85.50;;;;;;4966739;28;20027;-78
2021/05/14 08:19:11;;;;;;;10.00;7.30;;;20.00;84.50;;;;;;4982629;28;20038;-79
2021/05/14 08:21:39;;;;;;;10.95;9.15;;;20.20;85.00;;;;;;4979644;28;20069;-79
2021/05/14 08:24:05;;;;;;;15.50;12.32;;;20.60;86.30;;;;;;4983554;28;20057;-79
2021/05/14 08:26:31;;;;;;;18.77;13.00;;;21.10;87.70;;;;;;4994099;28;20113;-79
2021/05/14 08:28:56;;;;;;;14.70;12.15;;;21.40;86.50;;;;;;4999921;28;20121;-79
2021/05/14 08:31:22;;;;;;;15.45;11.88;;;21.60;85.10;;;;;;4997301;28;20807;-79
2021/05/14 08:33:47;;;;;;;18.73;12.57;;;21.80;85.50;;;;;;4978652;28;20571;-79
2021/05/14 08:36:13;;;;;;;16.95;13.05;;;21.90;84.10;;;;;;4980222;28;20089;-79
2021/05/14 08:38:38;;;;;;;17.70;13.85;;;21.90;82.60;;;;;;4977326;28;20117;-79
2021/05/14 08:41:07;;;;;;;12.85;9.05;;;22.10;83.40;;;;;;4994749;28;20386;-79
2021/05/14 08:43:33;;;;;;;14.95;10.77;;;22.30;79.70;;;;;;4985351;28;20576;-79
2021/05/14 08:46:01;;;;;;;16.30;11.88;;;22.10;81.50;;;;;;4996909;28;20117;-79
2021/05/14 08:48:27;;;;;;;15.65;12.85;;;22.30;80.30;;;;;;4991565;28;20081;-80
2021/05/14 08:50:52;;;;;;;12.82;10.38;;;22.40;80.20;;;;;;4980295;28;20023;-79
2021/05/14 08:53:18;;;;;;;13.88;11.32;;;22.40;80.60;;;;;;4983234;28;20022;-79
2021/05/14 08:55:43;;;;;;;9.63;8.07;;;22.50;79.30;;;;;;4998324;28;20033;-79
2021/05/14 08:58:09;;;;;;;14.10;10.13;;;22.50;77.40;;;;;;4981475;28;20026;-79
2021/05/14 09:00:34;;;;;;;12.95;9.13;;;22.60;79.00;;;;;;4996091;28;20031;-79
2021/05/14 09:03:00;;;;;;;10.32;6.70;;;22.60;76.90;;;;;;4972034;28;20536;-79
2021/05/14 09:05:32;;;;;;;7.32;5.90;;;22.50;75.20;;;;;;4965953;28;21093;-79
2021/05/14 09:07:58;;;;;;;13.88;9.00;;;22.20;75.00;;;;;;4975118;28;20437;-79
2021/05/14 09:10:25;;;;;;;8.05;6.18;;;22.20;75.30;;;;;;4983701;28;20489;-79
2021/05/14 09:12:50;;;;;;;10.25;6.55;;;22.20;74.50;;;;;;4996354;28;20122;-79
2021/05/14 09:15:26;;;;;;;10.32;9.18;;;22.40;73.20;;;;;;4982317;28;20113;-79
2021/05/14 09:18:18;;;;;;;9.48;7.70;;;22.90;72.90;;;;;;4993563;28;20065;-79
2021/05/14 09:20:59;;;;;;;11.25;8.82;;;22.90;72.80;;;;;;4978747;28;20141;-79
2021/05/14 09:23:32;;;;;;;11.68;8.43;;;22.70;65.40;;;;;;4974095;28;20026;-80
2021/05/14 09:26:09;;;;;;;9.13;7.03;;;23.10;72.70;;;;;;4979428;28;20038;-80
2021/05/14 09:28:44;;;;;;;15.25;8.32;;;23.60;73.40;;;;;;4993354;28;20297;-80
2021/05/14 09:31:17;;;;;;;10.77;6.97;;;23.70;72.80;;;;;;4993780;28;20029;-81
2021/05/14 09:33:54;;;;;;;8.80;7.38;;;24.10;72.40;;;;;;4972503;28;20060;-81
2021/05/14 09:36:34;;;;;;;6.05;4.00;;;24.10;71.60;;;;;;4984003;28;20648;-81
2021/05/14 09:39:04;;;;;;;5.10;3.72;;;24.40;70.30;;;;;;4975745;28;20026;-81
2021/05/14 09:41:42;;;;;;;7.90;4.45;;;24.70;67.50;;;;;;4991613;28;20507;-81
2021/05/14 09:44:11;;;;;;;5.90;4.25;;;24.40;64.30;;;;;;4994801;28;20107;-81
2021/05/14 09:46:46;;;;;;;4.20;3.80;;;24.60;66.30;;;;;;4992997;28;20030;-80
2021/05/14 09:49:19;;;;;;;4.28;3.88;;;24.80;65.80;;;;;;4982143;28;20057;-81
2021/05/14 09:51:55;;;;;;;5.25;3.88;;;24.90;65.60;;;;;;4977445;28;20053;-81
2021/05/14 09:54:37;;;;;;;7.78;4.93;;;24.90;61.80;;;;;;4993071;28;20038;-82
2021/05/14 09:59:44;;;;;;;5.63;4.88;;;25.60;63.60;;;;;;4993449;28;20038;-81
2021/05/14 10:02:26;;;;;;;4.95;4.10;;;25.80;63.90;;;;;;4966366;28;20041;-82
2021/05/14 10:04:52;;;;;;;6.10;3.55;;;25.80;61.80;;;;;;4968583;28;20252;-82
2021/05/14 10:07:17;;;;;;;4.05;3.65;;;25.60;61.10;;;;;;4995578;28;20034;-81
2021/05/14 10:09:45;;;;;;;4.40;3.15;;;25.40;59.40;;;;;;4993052;28;20573;-82
2021/05/14 10:12:11;;;;;;;5.65;4.38;;;25.20;59.60;;;;;;4980479;28;20573;-82
2021/05/14 10:14:37;;;;;;;11.30;5.10;;;25.10;58.80;;;;;;4981201;28;20030;-83
2021/05/14 10:17:02;;;;;;;5.22;4.50;;;25.10;60.00;;;;;;4977463;28;20038;-81
2021/05/14 10:19:28;;;;;;;5.32;3.47;;;24.90;54.10;;;;;;4978566;28;20038;-80
2021/05/14 10:21:54;;;;;;;4.95;4.00;;;25.00;58.40;;;;;;4962552;28;20418;-83
2021/05/14 10:24:45;;;;;;;4.95;3.92;;;25.30;58.50;;;;;;4984944;28;20037;-82
2021/05/14 10:27:15;;;;;;;6.18;3.92;;;25.80;58.20;;;;;;4983534;28;20062;-82
2021/05/14 10:29:45;;;;;;;7.28;3.88;;;25.70;57.70;;;;;;4983207;28;20034;-83
2021/05/14 10:32:12;;;;;;;7.35;3.58;;;25.80;55.50;;;;;;4994733;28;20038;-83
2021/05/14 10:34:37;;;;;;;4.25;3.10;;;26.00;54.70;;;;;;4978343;28;20096;-83
2021/05/14 10:37:03;;;;;;;4.72;3.35;;;25.80;56.40;;;;;;4964388;28;20054;-80
2021/05/14 10:39:34;;;;;;;6.07;3.58;;;25.70;52.70;;;;;;4983203;28;20037;-84
2021/05/14 10:42:09;;;;;;;5.13;3.60;;;25.70;53.50;;;;;;4980157;28;20044;-83
2021/05/14 10:44:45;;;;;;;5.32;3.17;;;25.90;55.50;;;;;;4983531;28;20030;-83
2021/05/14 10:47:25;;;;;;;4.88;3.28;;;25.90;54.40;;;;;;4984312;28;20069;-83
2021/05/14 10:49:59;;;;;;;6.10;3.15;;;26.30;52.60;;;;;;4992751;28;20477;-83
2021/05/14 10:52:27;;;;;;;4.55;3.53;;;26.10;48.00;;;;;;5001886;28;20025;-84
2021/05/14 10:54:53;;;;;;;6.28;3.15;;;25.70;49.50;;;;;;4982609;28;20679;-84
2021/05/14 10:57:47;;;;;;;4.28;2.88;;;26.40;53.10;;;;;;4978010;28;20045;-85
2021/05/14 11:00:25;;;;;;;3.30;2.95;;;26.50;50.60;;;;;;5004288;28;20027;-83
2021/05/14 11:03:10;;;;;;;4.68;2.75;;;26.90;47.70;;;;;;4993690;28;20509;-85
2021/05/14 11:05:35;;;;;;;7.35;3.42;;;27.10;53.60;;;;;;4998317;28;20041;-85
2021/05/14 11:08:01;;;;;;;2.65;2.33;;;26.80;52.10;;;;;;4998483;28;20034;-84
2021/05/14 11:10:28;;;;;;;3.63;3.08;;;27.00;52.00;;;;;;4967550;28;20141;-84
2021/05/14 11:12:53;;;;;;;3.70;3.33;;;27.10;51.00;;;;;;4980823;28;20085;-83
2021/05/14 11:15:19;;;;;;;6.55;3.33;;;27.10;51.40;;;;;;4963984;28;20030;-84
2021/05/14 11:18:07;;;;;;;3.95;3.20;;;27.20;50.60;;;;;;4999186;28;20038;-85
2021/05/14 11:20:53;;;;;;;4.32;3.47;;;27.00;51.70;;;;;;5001074;28;20549;-85
2021/05/14 11:23:41;;;;;;;3.20;2.33;;;27.10;51.10;;;;;;4994507;28;20027;-84
2021/05/14 11:26:08;;;;;;;5.15;3.63;;;27.10;51.20;;;;;;4993532;28;20036;-85
2021/05/14 11:28:42;;;;;;;3.65;2.88;;;27.40;47.50;;;;;;4971863;28;20038;-83
2021/05/14 11:31:19;;;;;;;3.53;2.95;;;27.40;49.10;;;;;;4979619;28;20033;-84
2021/05/14 11:33:48;;;;;;;3.85;2.95;;;27.50;49.30;;;;;;4291476;28;10000216;-84
2021/05/14 11:36:14;;;;;;;7.82;3.75;;;27.70;48.90;;;;;;4996195;28;20062;-84
2021/05/14 11:38:46;;;;;;;3.67;3.03;;;27.80;48.80;;;;;;4978321;28;20177;-84
2021/05/14 11:41:15;;;;;;;6.28;2.13;;;28.00;48.30;;;;;;4995983;28;20112;-84
2021/05/14 11:43:52;;;;;;;4.15;3.10;;;27.90;47.60;;;;;;4982195;28;20034;-83
2021/05/14 11:46:17;;;;;;;4.03;3.22;;;28.10;48.10;;;;;;4969057;28;20038;-84
2021/05/14 11:48:43;;;;;;;2.67;2.28;;;28.40;44.30;;;;;;4994180;28;20049;-83
2021/05/14 11:51:08;;;;;;;2.83;1.60;;;28.40;46.10;;;;;;4971993;28;20026;-83
2021/05/14 11:53:34;;;;;;;3.47;1.90;;;28.50;47.30;;;;;;4966159;28;20045;-83
2021/05/14 11:55:59;;;;;;;4.43;3.03;;;28.40;48.20;;;;;;4980263;28;20030;-83
2021/05/14 11:58:25;;;;;;;2.28;2.03;;;28.80;45.70;;;;;;4980455;28;20034;-83
2021/05/14 12:00:54;;;;;;;2.67;2.15;;;28.90;46.30;;;;;;4981131;28;20074;-83
2021/05/14 12:03:22;;;;;;;4.03;2.55;;;28.80;44.90;;;;;;4964417;28;20041;-83
2021/05/14 12:05:48;;;;;;;3.72;2.75;;;28.70;45.70;;;;;;4982439;28;20030;-83
2021/05/14 12:08:17;;;;;;;4.30;2.75;;;28.50;46.10;;;;;;4973210;28;20041;-83
2021/05/14 12:11:10;;;;;;;3.50;2.28;;;28.30;45.00;;;;;;4994359;28;20046;-83
2021/05/14 12:13:40;;;;;;;2.63;2.13;;;28.00;46.40;;;;;;4973131;28;20062;-82
2021/05/14 12:16:10;;;;;;;3.17;2.17;;;28.00;46.90;;;;;;5000466;28;20026;-82
2021/05/14 12:18:49;;;;;;;3.70;2.17;;;28.00;45.80;;;;;;4996413;28;20030;-82
2021/05/14 12:21:22;;;;;;;1.92;1.40;;;28.00;46.40;;;;;;4985245;28;20038;-83
2021/05/14 12:23:48;;;;;;;1.70;1.58;;;28.00;45.80;;;;;;4982467;28;20022;-82
2021/05/14 12:26:14;;;;;;;3.55;1.40;;;28.00;45.80;;;;;;4973461;28;20392;-83
2021/05/14 12:28:47;;;;;;;2.40;1.40;;;28.10;45.60;;;;;;4966792;28;20098;-82
2021/05/14 12:31:27;;;;;;;4.85;1.55;;;28.30;45.90;;;;;;4983104;28;20508;-82
2021/05/14 12:34:02;;;;;;;5.07;1.58;;;28.30;44.70;;;;;;5006086;28;20037;-82
2021/05/14 12:36:34;;;;;;;3.57;1.30;;;28.40;45.20;;;;;;4986412;28;20043;-82
2021/05/14 12:39:05;;;;;;;2.47;1.50;;;28.00;41.20;;;;;;4987322;28;20246;-82
2021/05/14 12:41:32;;;;;;;2.17;1.67;;;28.20;42.30;;;;;;4974137;28;20033;-82
2021/05/14 12:44:17;;;;;;;2.92;1.50;;;28.20;44.30;;;;;;4979084;28;20026;-82
2021/05/14 12:47:00;;;;;;;2.83;1.17;;;28.20;44.20;;;;;;4966518;28;20117;-82